createdAt,value
2019-01-27T00:02:08.083Z,-1.80
2019-01-27T00:04:36.365Z,-2.02
2019-01-27T00:07:04.639Z,-1.69
2019-01-27T00:09:32.975Z,-1.34
2019-01-27T00:12:01.249Z,-1.66
2019-01-27T00:14:29.523Z,-2.02
2019-01-27T00:16:57.899Z,-1.98
2019-01-27T00:19:26.190Z,-1.58
2019-01-27T00:21:54.640Z,-1.34
2019-01-27T00:24:22.951Z,-1.61
2019-01-27T00:26:51.230Z,-1.67
2019-01-27T00:29:19.509Z,-1.58
2019-01-27T00:31:47.834Z,-1.78
2019-01-27T00:34:16.161Z,-1.87
2019-01-27T00:36:44.446Z,-1.64
2019-01-27T00:39:12.759Z,-1.74
2019-01-27T00:41:41.041Z,-1.66
2019-01-27T00:44:09.309Z,-1.73
2019-01-27T00:46:37.626Z,-1.78
2019-01-27T00:49:05.921Z,-1.65
2019-01-27T00:51:34.201Z,-1.97
2019-01-27T00:54:02.508Z,-1.55
2019-01-27T00:56:30.788Z,-1.37
2019-01-27T00:58:59.066Z,-1.53
2019-01-27T01:01:27.381Z,-1.59
2019-01-27T01:03:55.662Z,-1.73
2019-01-27T01:06:23.940Z,-1.43
2019-01-27T01:08:52.320Z,-1.32
2019-01-27T01:11:20.679Z,-1.41
2019-01-27T01:13:48.958Z,-1.13
2019-01-27T01:16:17.278Z,-1.31
2019-01-27T01:18:45.621Z,-1.06
2019-01-27T01:21:13.898Z,-1.53
2019-01-27T01:23:42.209Z,-1.28
2019-01-27T01:26:10.479Z,-1.52
2019-01-27T01:28:38.758Z,-1.02
2019-01-27T01:31:07.090Z,-1.28
2019-01-27T01:33:35.363Z,-1.00
2019-01-27T01:36:03.634Z,-1.85
2019-01-27T01:38:31.955Z,-1.56
2019-01-27T01:41:00.234Z,-1.56
2019-01-27T01:43:28.516Z,-1.40
2019-01-27T01:45:56.839Z,-1.24
2019-01-27T01:48:26.441Z,-1.52
2019-01-27T01:50:54.721Z,-0.96
2019-01-27T01:53:23.025Z,-1.72
2019-01-27T01:55:51.313Z,-1.66
2019-01-27T01:58:19.657Z,-1.62
2019-01-27T02:00:47.971Z,-1.56
2019-01-27T02:03:16.257Z,-1.32
2019-01-27T02:05:44.607Z,-1.43
2019-01-27T02:08:12.916Z,-1.45
2019-01-27T02:10:41.198Z,-1.58
2019-01-27T02:13:09.471Z,-1.67
2019-01-27T02:15:41.045Z,-0.96
2019-01-27T02:18:09.323Z,-1.52
2019-01-27T02:20:37.602Z,-1.22
2019-01-27T02:23:05.913Z,-1.24
2019-01-27T02:25:34.193Z,-1.05
2019-01-27T02:28:02.476Z,-1.34
2019-01-27T02:30:30.800Z,-1.40
2019-01-27T02:32:59.081Z,-1.27
2019-01-27T02:38:27.523Z,-1.08
2019-01-27T02:40:55.809Z,-1.39
2019-01-27T02:43:24.101Z,-0.97
2019-01-27T02:45:52.399Z,-1.11
2019-01-27T02:48:20.673Z,-1.05
2019-01-27T02:50:48.962Z,-1.55
2019-01-27T02:53:17.286Z,-1.44
2019-01-27T02:55:45.572Z,-1.70
2019-01-27T02:58:13.850Z,-1.16
2019-01-27T03:00:42.239Z,-1.56
2019-01-27T03:03:11.088Z,-1.30
2019-01-27T03:05:52.774Z,-1.06
2019-01-27T03:08:21.125Z,-1.22
2019-01-27T03:10:49.402Z,-1.27
2019-01-27T03:13:17.777Z,-1.27
2019-01-27T03:15:46.066Z,-0.88
2019-01-27T03:18:14.323Z,-0.98
2019-01-27T03:20:42.637Z,-1.43
2019-01-27T03:23:10.914Z,-0.79
2019-01-27T03:25:39.198Z,-1.31
2019-01-27T03:28:07.517Z,-1.74
2019-01-27T03:30:35.870Z,-1.48
2019-01-27T03:33:04.128Z,-1.72
2019-01-27T03:35:32.433Z,-1.61
2019-01-27T03:38:00.707Z,-1.25
2019-01-27T03:40:28.988Z,-1.21
2019-01-27T03:42:57.304Z,-1.35
2019-01-27T03:45:25.586Z,-0.52
2019-01-27T03:47:53.926Z,-0.33
2019-01-27T03:50:22.313Z,-0.10
2019-01-27T03:52:50.588Z,-0.86
2019-01-27T03:55:27.036Z,-1.70
2019-01-27T03:57:55.350Z,-0.98
2019-01-27T04:00:24.418Z,-0.69
2019-01-27T04:02:52.654Z,-0.87
2019-01-27T04:05:21.190Z,-1.24
2019-01-27T04:07:49.685Z,-1.44
2019-01-27T04:10:22.597Z,-1.16
2019-01-27T04:12:50.931Z,-0.62
2019-01-27T04:15:19.267Z,-0.59
2019-01-27T04:17:47.563Z,-0.24
2019-01-27T04:20:18.465Z,-0.65
2019-01-27T04:22:46.741Z,-0.88
2019-01-27T04:25:15.456Z,-1.32
2019-01-27T04:27:43.763Z,-1.64
2019-01-27T04:30:15.041Z,-2.16
2019-01-27T04:32:43.310Z,-2.41
2019-01-27T04:35:12.247Z,-2.38
2019-01-27T04:37:40.544Z,-2.07
2019-01-27T04:40:11.825Z,-1.99
2019-01-27T04:42:40.138Z,-2.16
2019-01-27T04:45:11.620Z,-2.43
2019-01-27T04:47:39.896Z,-2.12
2019-01-27T04:50:11.108Z,-1.72
2019-01-27T04:52:39.391Z,-1.21
2019-01-27T04:55:13.244Z,-1.12
2019-01-27T04:57:41.561Z,-0.51
2019-01-27T05:00:16.206Z,-1.39
2019-01-27T05:02:46.192Z,-1.22
2019-01-27T05:05:14.473Z,-0.96
2019-01-27T05:07:42.754Z,-1.31
2019-01-27T05:10:13.177Z,-1.69
2019-01-27T05:12:41.440Z,-1.43
2019-01-27T05:15:17.609Z,-1.36
2019-01-27T05:17:45.885Z,-0.93
2019-01-27T05:20:14.162Z,-0.93
2019-01-27T05:22:42.473Z,-0.93
2019-01-27T05:25:15.680Z,-1.24
2019-01-27T05:27:43.960Z,-1.06
2019-01-27T05:30:23.093Z,-0.93
2019-01-27T05:32:51.375Z,-0.70
2019-01-27T05:35:19.659Z,-0.33
2019-01-27T05:37:47.968Z,-0.98
2019-01-27T05:40:18.446Z,-0.64
2019-01-27T05:42:46.744Z,-0.17
2019-01-27T05:45:17.259Z,-0.76
2019-01-27T05:47:45.531Z,-1.06
2019-01-27T05:50:14.845Z,-1.05
2019-01-27T05:52:43.169Z,-0.65
2019-01-27T05:55:16.328Z,-0.69
2019-01-27T05:57:44.605Z,-1.62
2019-01-27T06:00:20.218Z,-1.18
2019-01-27T06:02:48.563Z,-0.96
2019-01-27T06:05:16.837Z,-0.82
2019-01-27T06:07:45.157Z,-1.60
2019-01-27T06:10:13.702Z,-1.14
2019-01-27T06:12:41.985Z,-0.76
2019-01-27T06:15:13.044Z,-1.32
2019-01-27T06:17:41.317Z,-1.69
2019-01-27T06:20:12.242Z,-3.15
2019-01-27T06:22:40.803Z,-2.31
2019-01-27T06:25:11.529Z,-2.28
2019-01-27T06:27:39.801Z,-2.92
2019-01-27T06:30:14.205Z,-2.54
2019-01-27T06:33:00.036Z,-1.55
2019-01-27T06:35:28.533Z,-1.59
2019-01-27T06:37:56.831Z,-1.78
2019-01-27T06:40:25.111Z,-0.92
2019-01-27T06:42:53.431Z,-0.82
2019-01-27T06:45:21.781Z,-1.10
2019-01-27T06:47:50.068Z,-1.16
2019-01-27T06:50:18.401Z,-1.15
2019-01-27T06:52:46.696Z,-1.17
2019-01-27T06:55:17.599Z,-1.21
2019-01-27T06:57:45.928Z,-0.38
2019-01-27T07:00:27.491Z,-0.31
2019-01-27T07:02:57.522Z,-0.33
2019-01-27T07:05:27.442Z,-0.05
2019-01-27T07:08:06.121Z,-0.22
2019-01-27T07:10:41.577Z,0.00
2019-01-27T07:13:11.551Z,-0.25
2019-01-27T07:15:47.027Z,-0.33
2019-01-27T07:18:19.680Z,0.18
2019-01-27T07:20:52.743Z,0.20
2019-01-27T07:23:28.490Z,0.66
2019-01-27T07:26:01.409Z,0.60
2019-01-27T07:28:31.331Z,0.56
2019-01-27T07:31:19.205Z,0.17
2019-01-27T07:33:51.547Z,0.30
2019-01-27T07:36:21.466Z,0.28
2019-01-27T07:39:01.042Z,0.40
2019-01-27T07:41:36.451Z,0.21
2019-01-27T07:44:21.573Z,0.43
2019-01-27T07:46:51.495Z,0.18
2019-01-27T07:49:30.188Z,-0.74
2019-01-27T07:52:08.684Z,-0.62
2019-01-27T07:54:47.730Z,-0.53
2019-01-27T07:57:33.837Z,0.29
2019-01-27T08:00:06.505Z,0.12
2019-01-27T08:02:42.182Z,0.36
2019-01-27T08:05:24.377Z,0.43
2019-01-27T08:08:00.057Z,0.48
2019-01-27T08:10:32.946Z,0.59
2019-01-27T08:13:11.677Z,0.84
2019-01-27T08:15:44.430Z,0.65
2019-01-27T08:18:16.804Z,0.52
2019-01-27T08:20:49.480Z,1.02
2019-01-27T08:23:22.163Z,1.03
2019-01-27T08:25:58.310Z,0.99
2019-01-27T08:28:31.257Z,0.97
2019-01-27T08:31:13.039Z,0.53
2019-01-27T08:33:45.669Z,0.84
2019-01-27T08:36:18.424Z,0.10
2019-01-27T08:38:48.498Z,0.65
2019-01-27T08:41:34.869Z,1.25
2019-01-27T08:44:10.858Z,0.88
2019-01-27T08:46:40.822Z,0.25
2019-01-27T08:49:09.321Z,0.79
2019-01-27T08:51:37.607Z,0.99
2019-01-27T08:54:06.153Z,0.66
2019-01-27T08:56:34.526Z,1.27
2019-01-27T08:59:02.880Z,1.80
2019-01-27T09:01:49.173Z,2.03
2019-01-27T09:04:19.174Z,1.27
2019-01-27T09:06:57.766Z,1.18
2019-01-27T09:09:36.854Z,1.48
2019-01-27T09:12:18.809Z,0.95
2019-01-27T09:14:48.890Z,1.83
2019-01-27T09:17:30.687Z,1.67
2019-01-27T09:20:06.222Z,1.92
2019-01-27T09:22:38.929Z,1.89
2019-01-27T09:25:18.787Z,1.85
2019-01-27T09:28:03.725Z,1.87
2019-01-27T09:30:49.914Z,0.98
2019-01-27T09:33:32.073Z,2.05
2019-01-27T09:36:18.169Z,1.81
2019-01-27T09:41:42.262Z,2.30
2019-01-27T09:44:15.118Z,2.46
2019-01-27T09:46:54.210Z,2.56
2019-01-27T09:49:24.278Z,2.73
2019-01-27T09:51:54.337Z,2.57
2019-01-27T09:54:24.445Z,2.85
2019-01-27T09:56:57.068Z,2.97
2019-01-27T09:59:27.127Z,3.07
2019-01-27T10:01:57.219Z,2.69
2019-01-27T10:04:27.283Z,2.99
2019-01-27T10:06:57.333Z,2.92
2019-01-27T10:09:43.664Z,3.15
2019-01-27T10:12:16.180Z,2.98
2019-01-27T10:15:02.494Z,2.77
2019-01-27T10:17:35.303Z,0.59
2019-01-27T10:20:06.960Z,1.90
2019-01-27T10:22:37.112Z,1.77
2019-01-27T10:25:16.002Z,2.82
2019-01-27T10:27:42.068Z,2.66
2019-01-27T10:30:18.411Z,2.81
2019-01-27T10:32:51.460Z,3.29
2019-01-27T10:35:42.736Z,3.52
2019-01-27T10:38:14.043Z,3.57
2019-01-27T10:40:46.844Z,3.37
2019-01-27T10:43:16.899Z,3.56
2019-01-27T10:46:01.974Z,3.77
2019-01-27T10:48:37.731Z,3.68
2019-01-27T10:51:25.773Z,3.55
2019-01-27T10:53:55.826Z,3.52
2019-01-27T10:56:41.083Z,2.83
2019-01-27T10:59:13.842Z,2.50
2019-01-27T11:01:43.901Z,2.07
2019-01-27T11:04:16.761Z,3.10
2019-01-27T11:06:49.861Z,3.74
2019-01-27T11:09:35.888Z,3.71
2019-01-27T11:12:23.883Z,3.54
2019-01-27T11:14:56.678Z,3.66
2019-01-27T11:17:29.552Z,3.81
2019-01-27T11:20:02.642Z,3.52
2019-01-27T11:22:48.627Z,3.32
2019-01-27T11:25:33.912Z,3.50
2019-01-27T11:28:03.988Z,4.17
2019-01-27T11:30:39.959Z,4.31
2019-01-27T11:33:12.853Z,4.46
2019-01-27T11:35:48.771Z,4.15
2019-01-27T11:38:30.771Z,4.46
2019-01-27T11:41:00.879Z,2.46
2019-01-27T11:43:30.959Z,3.44
2019-01-27T11:46:18.113Z,4.09
2019-01-27T11:48:54.046Z,4.42
2019-01-27T11:51:24.408Z,4.47
2019-01-27T11:53:52.897Z,4.66
2019-01-27T11:56:21.390Z,4.79
2019-01-27T11:58:49.924Z,4.88
2019-01-27T12:01:18.425Z,4.65
2019-01-27T12:03:46.910Z,4.77
2019-01-27T12:06:16.431Z,4.87
2019-01-27T12:08:44.931Z,4.92
2019-01-27T12:11:13.414Z,4.88
2019-01-27T12:13:41.943Z,4.94
2019-01-27T12:16:10.435Z,4.81
2019-01-27T12:18:38.928Z,4.02
2019-01-27T12:21:07.454Z,4.34
2019-01-27T12:23:35.948Z,4.55
2019-01-27T12:26:04.435Z,5.00
2019-01-27T12:28:32.977Z,4.16
2019-01-27T12:31:01.477Z,4.13
2019-01-27T12:33:29.983Z,4.68
2019-01-27T12:35:58.507Z,4.86
2019-01-27T12:38:27.002Z,5.03
2019-01-27T12:40:55.495Z,4.52
2019-01-27T12:43:24.021Z,4.74
2019-01-27T12:45:52.533Z,4.47
2019-01-27T12:48:21.026Z,4.77
2019-01-27T12:50:50.567Z,5.00
2019-01-27T12:53:19.056Z,5.07
2019-01-27T12:55:47.535Z,5.11
2019-01-27T12:58:16.068Z,5.15
2019-01-27T13:00:47.969Z,5.15
2019-01-27T13:03:16.557Z,4.95
2019-01-27T13:05:45.106Z,5.10
2019-01-27T13:08:15.185Z,5.28
2019-01-27T13:10:43.681Z,5.28
2019-01-27T13:13:12.257Z,5.32
2019-01-27T13:15:40.705Z,5.22
2019-01-27T13:18:09.183Z,5.26
2019-01-27T13:20:37.704Z,4.90
2019-01-27T13:23:06.198Z,5.09
2019-01-27T13:25:34.688Z,4.94
2019-01-27T13:28:03.225Z,5.14
2019-01-27T13:30:31.864Z,5.11
2019-01-27T13:33:03.465Z,5.15
2019-01-27T13:35:32.065Z,5.15
2019-01-27T13:38:00.555Z,5.19
2019-01-27T13:40:29.641Z,4.80
2019-01-27T13:42:58.168Z,4.81
2019-01-27T13:45:32.794Z,5.15
2019-01-27T13:48:01.275Z,5.22
2019-01-27T13:50:29.795Z,5.19
2019-01-27T13:52:58.349Z,5.25
2019-01-27T13:55:31.239Z,5.00
2019-01-27T13:57:59.756Z,5.01
2019-01-27T14:00:34.067Z,5.11
2019-01-27T14:03:02.555Z,5.06
2019-01-27T14:05:31.080Z,5.15
2019-01-27T14:08:01.130Z,5.49
2019-01-27T14:10:30.618Z,5.67
2019-01-27T14:12:59.177Z,5.81
2019-01-27T14:15:30.289Z,5.51
2019-01-27T14:17:58.800Z,5.79
2019-01-27T14:20:27.325Z,5.70
2019-01-27T14:22:55.827Z,5.77
2019-01-27T14:25:26.213Z,5.78
2019-01-27T14:27:54.761Z,5.70
2019-01-27T14:30:31.627Z,5.62
2019-01-27T14:33:01.100Z,5.81
2019-01-27T14:35:29.579Z,5.18
2019-01-27T14:37:58.057Z,5.24
2019-01-27T14:40:28.700Z,5.17
2019-01-27T14:42:57.191Z,5.10
2019-01-27T14:45:27.973Z,4.90
2019-01-27T14:47:56.502Z,4.77
2019-01-27T14:50:36.598Z,4.73
2019-01-27T14:53:06.603Z,4.68
2019-01-27T14:55:35.104Z,4.61
2019-01-27T14:58:03.604Z,4.52
2019-01-27T15:00:36.442Z,4.42
2019-01-27T15:03:05.901Z,4.39
2019-01-27T15:05:34.397Z,4.28
2019-01-27T15:08:02.932Z,4.23
2019-01-27T15:10:31.437Z,4.17
2019-01-27T15:12:59.925Z,4.13
2019-01-27T15:15:28.458Z,4.05
2019-01-27T15:17:56.955Z,4.05
2019-01-27T15:20:34.219Z,3.97
2019-01-27T15:23:04.278Z,3.91
2019-01-27T15:25:32.757Z,3.87
2019-01-27T15:28:01.301Z,3.69
2019-01-27T15:30:39.398Z,3.69
2019-01-27T15:33:08.130Z,3.59
2019-01-27T15:35:41.064Z,3.70
2019-01-27T15:38:09.556Z,3.49
2019-01-27T15:40:38.091Z,3.64
2019-01-27T15:43:06.585Z,3.62
2019-01-27T15:45:35.072Z,3.52
2019-01-27T15:48:03.924Z,3.56
2019-01-27T15:50:34.312Z,3.51
2019-01-27T15:53:02.798Z,3.52
2019-01-27T15:55:31.327Z,3.44
2019-01-27T15:57:59.871Z,3.46
2019-01-27T16:00:30.831Z,3.41
2019-01-27T16:03:00.918Z,3.40
2019-01-27T16:05:29.400Z,3.37
2019-01-27T16:07:59.458Z,3.35
2019-01-27T16:10:28.283Z,3.31
2019-01-27T16:12:57.582Z,3.24
2019-01-27T16:15:36.341Z,3.18
2019-01-27T16:18:06.693Z,3.31
2019-01-27T16:20:35.184Z,3.21
2019-01-27T16:23:21.226Z,3.15
2019-01-27T16:25:49.714Z,3.25
2019-01-27T16:28:18.209Z,3.16
2019-01-27T16:31:00.447Z,3.20
2019-01-27T16:33:42.349Z,3.16
2019-01-27T16:36:10.883Z,3.07
2019-01-27T16:38:39.376Z,3.09
2019-01-27T16:41:07.862Z,3.13
2019-01-27T16:43:40.455Z,3.10
2019-01-27T16:46:08.959Z,3.07
2019-01-27T16:48:37.452Z,3.05
2019-01-27T16:51:05.971Z,3.01
2019-01-27T16:53:37.182Z,2.96
2019-01-27T16:56:08.009Z,2.93
2019-01-27T16:58:39.331Z,2.93
2019-01-27T17:01:10.848Z,2.93
2019-01-27T17:03:40.905Z,2.96
2019-01-27T17:06:09.447Z,2.93
2019-01-27T17:08:37.935Z,2.95
2019-01-27T17:11:06.422Z,2.85
2019-01-27T17:13:36.137Z,2.88
2019-01-27T17:16:06.274Z,2.89
2019-01-27T17:18:34.867Z,2.83
2019-01-27T17:21:03.398Z,2.82
2019-01-27T17:23:31.888Z,2.86
2019-01-27T17:26:00.385Z,2.91
2019-01-27T17:28:29.885Z,2.80
2019-01-27T17:30:58.492Z,2.76
2019-01-27T17:33:28.550Z,2.74
2019-01-27T17:35:57.075Z,2.74
2019-01-27T17:38:28.540Z,2.73
2019-01-27T17:40:57.042Z,2.72
2019-01-27T17:43:25.575Z,2.64
2019-01-27T17:45:54.075Z,2.73
2019-01-27T17:48:22.572Z,2.67
2019-01-27T17:50:51.109Z,2.67
2019-01-27T17:53:19.605Z,2.67
2019-01-27T17:55:48.100Z,2.61
2019-01-27T17:58:21.318Z,2.61
2019-01-27T18:01:10.594Z,2.64
2019-01-27T18:03:46.161Z,2.57
2019-01-27T18:06:18.916Z,2.57
2019-01-27T18:08:48.981Z,2.54
2019-01-27T18:11:31.238Z,2.54
2019-01-27T18:14:04.369Z,2.52
2019-01-27T18:16:32.861Z,2.34
2019-01-27T18:19:01.381Z,2.37
2019-01-27T18:21:29.876Z,2.09
2019-01-27T18:23:59.929Z,1.96
2019-01-27T18:26:28.472Z,1.84
2019-01-27T18:28:57.074Z,2.15
2019-01-27T18:31:25.573Z,2.11
2019-01-27T18:33:55.680Z,2.23
2019-01-27T18:36:24.166Z,2.48
2019-01-27T18:38:52.658Z,2.24
2019-01-27T18:41:21.185Z,2.40
2019-01-27T18:43:49.663Z,2.38
2019-01-27T18:46:20.174Z,2.43
2019-01-27T18:48:50.275Z,2.48
2019-01-27T18:51:18.753Z,2.44
2019-01-27T18:53:51.853Z,2.42
2019-01-27T18:56:21.919Z,2.36
2019-01-27T18:59:10.816Z,2.34
2019-01-27T19:01:58.566Z,2.41
2019-01-27T19:04:28.629Z,2.14
2019-01-27T19:06:58.695Z,2.26
2019-01-27T19:09:34.533Z,2.35
2019-01-27T19:12:04.592Z,2.35
2019-01-27T19:14:43.635Z,2.33
2019-01-27T19:17:17.985Z,2.39
2019-01-27T19:20:07.845Z,2.23
2019-01-27T19:22:43.718Z,1.91
2019-01-27T19:25:30.989Z,2.23
2019-01-27T19:28:21.484Z,2.30
2019-01-27T19:30:54.599Z,2.24
2019-01-27T19:33:35.031Z,2.31
2019-01-27T19:36:08.094Z,2.36
2019-01-27T19:38:54.174Z,2.24
2019-01-27T19:41:24.282Z,2.25
2019-01-27T19:44:00.344Z,2.19
2019-01-27T19:46:36.193Z,2.22
2019-01-27T19:49:07.815Z,2.20
2019-01-27T19:51:55.826Z,2.24
2019-01-27T19:54:30.478Z,2.17
2019-01-27T19:57:03.390Z,2.24
2019-01-27T19:59:33.452Z,2.19
2019-01-27T20:02:19.242Z,2.21
2019-01-27T20:04:56.658Z,1.67
2019-01-27T20:07:26.808Z,2.01
2019-01-27T20:10:02.620Z,1.89
2019-01-27T20:12:32.727Z,1.94
2019-01-27T20:15:05.292Z,2.06
2019-01-27T20:17:39.846Z,2.21
2019-01-27T20:20:18.995Z,2.11
2019-01-27T20:22:58.076Z,2.07
2019-01-27T20:25:46.075Z,1.99
2019-01-27T20:28:27.861Z,2.13
2019-01-27T20:31:00.674Z,1.77
2019-01-27T20:33:33.366Z,1.95
2019-01-27T20:36:09.493Z,1.86
2019-01-27T20:38:45.807Z,1.91
2019-01-27T20:41:15.869Z,1.87
2019-01-27T20:43:45.943Z,1.96
2019-01-27T20:46:16.037Z,1.86
2019-01-27T20:49:02.258Z,1.89
2019-01-27T20:51:32.355Z,1.91
2019-01-27T20:54:02.422Z,1.78
2019-01-27T20:56:35.459Z,1.87
2019-01-27T20:59:24.584Z,1.83
2019-01-27T21:01:54.644Z,1.75
2019-01-27T21:04:41.306Z,1.85
2019-01-27T21:07:11.360Z,1.88
2019-01-27T21:09:43.993Z,1.95
2019-01-27T21:12:17.081Z,2.00
2019-01-27T21:14:47.152Z,1.98
2019-01-27T21:17:20.201Z,1.78
2019-01-27T21:19:48.742Z,1.94
2019-01-27T21:22:17.234Z,1.80
2019-01-27T21:24:45.727Z,1.81
2019-01-27T21:27:17.018Z,1.83
2019-01-27T21:29:45.502Z,1.71
2019-01-27T21:32:13.994Z,1.88
2019-01-27T21:34:42.533Z,1.79
2019-01-27T21:37:11.019Z,1.88
2019-01-27T21:39:39.509Z,1.78
2019-01-27T21:42:08.046Z,1.36
2019-01-27T21:44:36.527Z,1.30
2019-01-27T21:47:05.024Z,1.30
2019-01-27T21:49:33.551Z,1.46
2019-01-27T21:52:02.052Z,1.53
2019-01-27T21:54:31.666Z,1.34
2019-01-27T21:57:00.192Z,1.27
2019-01-27T21:59:28.693Z,1.44
2019-01-27T22:01:57.184Z,1.57
2019-01-27T22:04:26.580Z,1.52
2019-01-27T22:06:55.080Z,1.62
2019-01-27T22:09:23.583Z,1.57
2019-01-27T22:11:52.117Z,1.21
2019-01-27T22:14:20.623Z,1.85
2019-01-27T22:16:48.913Z,1.88
2019-01-27T22:19:17.450Z,1.78
2019-01-27T22:21:45.750Z,1.58
2019-01-27T22:24:14.236Z,1.77
2019-01-27T22:26:42.542Z,1.97
2019-01-27T22:29:10.830Z,1.83
2019-01-27T22:31:41.945Z,1.88
2019-01-27T22:34:10.330Z,1.91
2019-01-27T22:36:38.747Z,1.95
2019-01-27T22:39:08.267Z,1.96
2019-01-27T22:41:36.666Z,2.02
2019-01-27T22:44:05.118Z,2.02
2019-01-27T22:46:33.407Z,1.99
2019-01-27T22:49:01.725Z,1.82
2019-01-27T22:51:30.015Z,1.59
2019-01-27T22:54:00.802Z,1.54
2019-01-27T22:56:29.127Z,1.64
2019-01-27T22:58:57.416Z,1.62
2019-01-27T23:01:25.781Z,1.71
2019-01-27T23:03:54.087Z,1.74
2019-01-27T23:06:23.219Z,1.82
2019-01-27T23:08:51.579Z,1.17
2019-01-27T23:11:20.510Z,0.98
2019-01-27T23:13:48.844Z,1.44
2019-01-27T23:16:18.179Z,1.27
2019-01-27T23:18:46.594Z,1.47
2019-01-27T23:21:14.883Z,1.76
2019-01-27T23:23:44.856Z,1.77
2019-01-27T23:26:13.178Z,1.35
2019-01-27T23:28:41.596Z,1.64
2019-01-27T23:31:09.951Z,1.75
2019-01-27T23:33:38.283Z,1.86
2019-01-27T23:36:06.571Z,1.98
2019-01-27T23:38:34.924Z,1.70
2019-01-27T23:41:03.322Z,1.78
2019-01-27T23:43:34.511Z,1.54
2019-01-27T23:46:02.870Z,1.68
2019-01-27T23:48:31.186Z,1.62
2019-01-27T23:51:01.174Z,1.77
2019-01-27T23:53:29.537Z,1.56
2019-01-27T23:55:57.860Z,1.34
2019-01-27T23:58:26.208Z,1.57
